sensor_id;sensor_type;location;lat;lon;timestamp;temperature;humidity
74171;DHT22;62526;50.948;6.590;2023-02-15T00:01:08;3.60;99.90
74171;DHT22;62526;50.948;6.590;2023-02-15T00:03:35;3.60;99.90
74171;DHT22;62526;50.948;6.590;2023-02-15T00:06:01;3.60;99.90
74171;DHT22;62526;50.948;6.590;2023-02-15T00:08:28;3.50;99.90
74171;DHT22;62526;50.948;6.590;2023-02-15T00:13:36;3.50;99.90
74171;DHT22;62526;50.948;6.590;2023-02-15T00:16:04;3.40;99.90
74171;DHT22;62526;50.948;6.590;2023-02-15T00:18:31;3.40;99.90
74171;DHT22;62526;50.948;6.590;2023-02-15T00:20:57;3.30;99.90
74171;DHT22;62526;50.948;6.590;2023-02-15T00:23:25;3.30;99.90
74171;DHT22;62526;50.948;6.590;2023-02-15T00:25:51;3.30;99.90
74171;DHT22;62526;50.948;6.590;2023-02-15T00:28:18;3.30;99.90
74171;DHT22;62526;50.948;6.590;2023-02-15T00:30:45;3.30;99.90
74171;DHT22;62526;50.948;6.590;2023-02-15T00:33:11;3.20;99.90
74171;DHT22;62526;50.948;6.590;2023-02-15T00:35:38;3.20;99.90
74171;DHT22;62526;50.948;6.590;2023-02-15T00:38:04;3.20;99.90
74171;DHT22;62526;50.948;6.590;2023-02-15T00:40:31;3.20;99.90
74171;DHT22;62526;50.948;6.590;2023-02-15T00:42:58;3.20;99.90
74171;DHT22;62526;50.948;6.590;2023-02-15T00:45:24;3.20;99.90
74171;DHT22;62526;50.948;6.590;2023-02-15T00:47:51;3.10;99.90
74171;DHT22;62526;50.948;6.590;2023-02-15T00:50:18;3.10;99.90
74171;DHT22;62526;50.948;6.590;2023-02-15T00:52:45;3.10;99.90
74171;DHT22;62526;50.948;6.590;2023-02-15T00:55:12;3.00;99.90
74171;DHT22;62526;50.948;6.590;2023-02-15T00:57:38;3.00;99.90
74171;DHT22;62526;50.948;6.590;2023-02-15T01:00:05;2.90;99.90
74171;DHT22;62526;50.948;6.590;2023-02-15T01:02:34;2.90;99.90
74171;DHT22;62526;50.948;6.590;2023-02-15T01:05:01;2.90;99.90
74171;DHT22;62526;50.948;6.590;2023-02-15T01:07:28;2.90;99.90
74171;DHT22;62526;50.948;6.590;2023-02-15T01:09:55;3.00;99.90
74171;DHT22;62526;50.948;6.590;2023-02-15T01:12:22;2.90;99.90
74171;DHT22;62526;50.948;6.590;2023-02-15T01:14:49;3.00;99.90
74171;DHT22;62526;50.948;6.590;2023-02-15T01:17:16;3.00;99.90
74171;DHT22;62526;50.948;6.590;2023-02-15T01:19:43;3.00;99.90
74171;DHT22;62526;50.948;6.590;2023-02-15T01:22:09;2.90;99.90
74171;DHT22;62526;50.948;6.590;2023-02-15T01:24:36;2.90;99.90
74171;DHT22;62526;50.948;6.590;2023-02-15T01:27:03;3.30;99.90
74171;DHT22;62526;50.948;6.590;2023-02-15T01:29:30;2.80;99.90
74171;DHT22;62526;50.948;6.590;2023-02-15T01:31:57;2.70;99.90
74171;DHT22;62526;50.948;6.590;2023-02-15T01:34:23;2.70;99.90
74171;DHT22;62526;50.948;6.590;2023-02-15T01:36:50;2.70;99.90
74171;DHT22;62526;50.948;6.590;2023-02-15T01:39:17;2.70;99.90
74171;DHT22;62526;50.948;6.590;2023-02-15T01:41:43;2.70;99.90
74171;DHT22;62526;50.948;6.590;2023-02-15T01:46:50;2.70;99.90
74171;DHT22;62526;50.948;6.590;2023-02-15T01:49:16;2.80;99.90
74171;DHT22;62526;50.948;6.590;2023-02-15T01:51:42;2.80;99.90
74171;DHT22;62526;50.948;6.590;2023-02-15T01:54:12;2.80;99.90
74171;DHT22;62526;50.948;6.590;2023-02-15T01:56:37;2.80;99.90
74171;DHT22;62526;50.948;6.590;2023-02-15T01:59:08;2.70;99.90
74171;DHT22;62526;50.948;6.590;2023-02-15T02:01:33;2.80;99.90
74171;DHT22;62526;50.948;6.590;2023-02-15T02:04:08;2.70;99.90
74171;DHT22;62526;50.948;6.590;2023-02-15T02:06:32;2.70;99.90
74171;DHT22;62526;50.948;6.590;2023-02-15T02:08:59;2.70;99.90
74171;DHT22;62526;50.948;6.590;2023-02-15T02:11:26;2.70;99.90
74171;DHT22;62526;50.948;6.590;2023-02-15T02:13:52;2.70;99.90
74171;DHT22;62526;50.948;6.590;2023-02-15T02:16:24;2.70;99.90
74171;DHT22;62526;50.948;6.590;2023-02-15T02:18:58;2.70;99.90
74171;DHT22;62526;50.948;6.590;2023-02-15T02:21:49;2.60;99.90
74171;DHT22;62526;50.948;6.590;2023-02-15T02:24:35;2.60;99.90
74171;DHT22;62526;50.948;6.590;2023-02-15T02:32:28;2.50;99.90
74171;DHT22;62526;50.948;6.590;2023-02-15T02:34:55;2.50;99.90
74171;DHT22;62526;50.948;6.590;2023-02-15T02:37:35;2.40;99.90
74171;DHT22;62526;50.948;6.590;2023-02-15T02:40:09;2.40;99.90
74171;DHT22;62526;50.948;6.590;2023-02-15T02:42:49;2.40;99.90
74171;DHT22;62526;50.948;6.590;2023-02-15T02:45:32;2.40;99.90
74171;DHT22;62526;50.948;6.590;2023-02-15T02:48:16;2.30;99.90
74171;DHT22;62526;50.948;6.590;2023-02-15T02:53:26;2.30;99.90
74171;DHT22;62526;50.948;6.590;2023-02-15T02:55:56;2.30;99.90
74171;DHT22;62526;50.948;6.590;2023-02-15T02:58:26;2.40;99.90
74171;DHT22;62526;50.948;6.590;2023-02-15T03:00:54;2.40;99.90
74171;DHT22;62526;50.948;6.590;2023-02-15T03:03:41;2.30;99.90
74171;DHT22;62526;50.948;6.590;2023-02-15T03:06:11;2.40;99.90
74171;DHT22;62526;50.948;6.590;2023-02-15T03:08:38;2.40;99.90
74171;DHT22;62526;50.948;6.590;2023-02-15T03:11:03;2.30;99.90
74171;DHT22;62526;50.948;6.590;2023-02-15T03:13:29;2.30;99.90
74171;DHT22;62526;50.948;6.590;2023-02-15T03:15:57;2.20;99.90
74171;DHT22;62526;50.948;6.590;2023-02-15T03:18:32;2.20;99.90
74171;DHT22;62526;50.948;6.590;2023-02-15T03:20:56;2.20;99.90
74171;DHT22;62526;50.948;6.590;2023-02-15T03:23:25;2.20;99.90
74171;DHT22;62526;50.948;6.590;2023-02-15T03:25:53;2.10;99.90
74171;DHT22;62526;50.948;6.590;2023-02-15T03:28:20;2.10;99.90
74171;DHT22;62526;50.948;6.590;2023-02-15T03:30:46;2.10;99.90
74171;DHT22;62526;50.948;6.590;2023-02-15T03:33:12;2.10;99.90
74171;DHT22;62526;50.948;6.590;2023-02-15T03:35:50;2.10;99.90
74171;DHT22;62526;50.948;6.590;2023-02-15T03:38:17;2.10;99.90
74171;DHT22;62526;50.948;6.590;2023-02-15T03:40:42;2.10;99.90
74171;DHT22;62526;50.948;6.590;2023-02-15T03:43:22;2.10;99.90
74171;DHT22;62526;50.948;6.590;2023-02-15T03:45:47;2.10;99.90
74171;DHT22;62526;50.948;6.590;2023-02-15T03:48:12;2.00;99.90
74171;DHT22;62526;50.948;6.590;2023-02-15T03:53:24;2.00;99.90
74171;DHT22;62526;50.948;6.590;2023-02-15T03:55:54;2.00;99.90
74171;DHT22;62526;50.948;6.590;2023-02-15T03:58:20;2.00;99.90
74171;DHT22;62526;50.948;6.590;2023-02-15T04:00:57;2.00;99.90
74171;DHT22;62526;50.948;6.590;2023-02-15T04:03:33;2.00;99.90
74171;DHT22;62526;50.948;6.590;2023-02-15T04:05:58;1.90;99.90
74171;DHT22;62526;50.948;6.590;2023-02-15T04:08:25;1.90;99.90
74171;DHT22;62526;50.948;6.590;2023-02-15T04:10:52;1.90;99.90
74171;DHT22;62526;50.948;6.590;2023-02-15T04:13:20;1.90;99.90
74171;DHT22;62526;50.948;6.590;2023-02-15T04:15:46;1.90;99.90
74171;DHT22;62526;50.948;6.590;2023-02-15T04:18:19;1.90;99.90
74171;DHT22;62526;50.948;6.590;2023-02-15T04:20:46;1.90;99.90
74171;DHT22;62526;50.948;6.590;2023-02-15T04:23:18;1.90;99.90
74171;DHT22;62526;50.948;6.590;2023-02-15T04:25:50;1.90;99.90
74171;DHT22;62526;50.948;6.590;2023-02-15T04:28:17;1.90;99.90
74171;DHT22;62526;50.948;6.590;2023-02-15T04:30:44;1.90;99.90
74171;DHT22;62526;50.948;6.590;2023-02-15T04:33:10;1.90;99.90
74171;DHT22;62526;50.948;6.590;2023-02-15T04:35:37;2.00;99.90
74171;DHT22;62526;50.948;6.590;2023-02-15T04:38:04;1.90;99.90
74171;DHT22;62526;50.948;6.590;2023-02-15T04:40:30;1.90;99.90
74171;DHT22;62526;50.948;6.590;2023-02-15T04:42:57;1.90;99.90
74171;DHT22;62526;50.948;6.590;2023-02-15T04:45:24;1.90;99.90
74171;DHT22;62526;50.948;6.590;2023-02-15T04:47:51;1.80;99.90
74171;DHT22;62526;50.948;6.590;2023-02-15T04:53:04;1.70;99.90
74171;DHT22;62526;50.948;6.590;2023-02-15T04:55:30;1.80;99.90
74171;DHT22;62526;50.948;6.590;2023-02-15T04:57:57;1.80;99.90
74171;DHT22;62526;50.948;6.590;2023-02-15T05:00:23;1.80;99.90
74171;DHT22;62526;50.948;6.590;2023-02-15T05:02:50;1.80;99.90
74171;DHT22;62526;50.948;6.590;2023-02-15T05:05:17;1.80;99.90
74171;DHT22;62526;50.948;6.590;2023-02-15T05:07:43;1.80;99.90
74171;DHT22;62526;50.948;6.590;2023-02-15T05:10:10;1.80;99.90
74171;DHT22;62526;50.948;6.590;2023-02-15T05:12:36;1.80;99.90
74171;DHT22;62526;50.948;6.590;2023-02-15T05:15:03;1.70;99.90
74171;DHT22;62526;50.948;6.590;2023-02-15T05:17:30;1.70;99.90
74171;DHT22;62526;50.948;6.590;2023-02-15T05:19:56;1.70;99.90
74171;DHT22;62526;50.948;6.590;2023-02-15T05:22:23;1.70;99.90
74171;DHT22;62526;50.948;6.590;2023-02-15T05:24:49;1.60;99.90
74171;DHT22;62526;50.948;6.590;2023-02-15T05:27:22;1.60;99.90
74171;DHT22;62526;50.948;6.590;2023-02-15T05:29:54;1.60;99.90
74171;DHT22;62526;50.948;6.590;2023-02-15T05:32:21;1.50;99.90
74171;DHT22;62526;50.948;6.590;2023-02-15T05:34:48;1.50;99.90
74171;DHT22;62526;50.948;6.590;2023-02-15T05:37:15;1.50;99.90
74171;DHT22;62526;50.948;6.590;2023-02-15T05:39:41;1.50;99.90
74171;DHT22;62526;50.948;6.590;2023-02-15T05:42:08;1.50;99.90
74171;DHT22;62526;50.948;6.590;2023-02-15T05:44:35;1.50;99.90
74171;DHT22;62526;50.948;6.590;2023-02-15T05:47:01;1.50;99.90
74171;DHT22;62526;50.948;6.590;2023-02-15T05:49:28;1.50;99.90
74171;DHT22;62526;50.948;6.590;2023-02-15T05:51:54;1.40;99.90
74171;DHT22;62526;50.948;6.590;2023-02-15T05:54:21;1.40;99.90
74171;DHT22;62526;50.948;6.590;2023-02-15T05:56:48;1.40;99.90
74171;DHT22;62526;50.948;6.590;2023-02-15T05:59:14;1.40;99.90
74171;DHT22;62526;50.948;6.590;2023-02-15T06:01:41;1.40;99.90
74171;DHT22;62526;50.948;6.590;2023-02-15T06:04:08;1.50;99.90
74171;DHT22;62526;50.948;6.590;2023-02-15T06:06:35;1.40;99.90
74171;DHT22;62526;50.948;6.590;2023-02-15T06:09:02;1.40;99.90
74171;DHT22;62526;50.948;6.590;2023-02-15T06:11:28;1.50;99.90
74171;DHT22;62526;50.948;6.590;2023-02-15T06:13:55;1.40;99.90
74171;DHT22;62526;50.948;6.590;2023-02-15T06:16:22;1.50;99.90
74171;DHT22;62526;50.948;6.590;2023-02-15T06:18:48;1.40;99.90
74171;DHT22;62526;50.948;6.590;2023-02-15T06:21:14;1.40;99.90
74171;DHT22;62526;50.948;6.590;2023-02-15T06:23:42;1.40;99.90
74171;DHT22;62526;50.948;6.590;2023-02-15T06:26:09;1.50;99.90
74171;DHT22;62526;50.948;6.590;2023-02-15T06:28:35;1.50;99.90
74171;DHT22;62526;50.948;6.590;2023-02-15T06:31:02;1.50;99.90
74171;DHT22;62526;50.948;6.590;2023-02-15T06:33:30;1.50;99.90
74171;DHT22;62526;50.948;6.590;2023-02-15T06:35:57;1.50;99.90
74171;DHT22;62526;50.948;6.590;2023-02-15T06:38:23;1.50;99.90
74171;DHT22;62526;50.948;6.590;2023-02-15T06:40:50;1.40;99.90
74171;DHT22;62526;50.948;6.590;2023-02-15T06:43:16;1.40;99.90
74171;DHT22;62526;50.948;6.590;2023-02-15T06:45:43;1.40;99.90
74171;DHT22;62526;50.948;6.590;2023-02-15T06:48:10;1.40;99.90
74171;DHT22;62526;50.948;6.590;2023-02-15T06:53:22;1.40;99.90
74171;DHT22;62526;50.948;6.590;2023-02-15T06:55:49;1.40;99.90
74171;DHT22;62526;50.948;6.590;2023-02-15T06:58:15;1.40;99.90
74171;DHT22;62526;50.948;6.590;2023-02-15T07:00:43;1.50;99.90
74171;DHT22;62526;50.948;6.590;2023-02-15T07:03:12;1.50;99.90
74171;DHT22;62526;50.948;6.590;2023-02-15T07:05:39;1.50;99.90
74171;DHT22;62526;50.948;6.590;2023-02-15T07:08:07;1.60;99.90
74171;DHT22;62526;50.948;6.590;2023-02-15T07:10:34;1.60;99.90
74171;DHT22;62526;50.948;6.590;2023-02-15T07:13:00;1.60;99.90
74171;DHT22;62526;50.948;6.590;2023-02-15T07:15:27;1.70;99.90
74171;DHT22;62526;50.948;6.590;2023-02-15T07:17:53;1.70;99.90
74171;DHT22;62526;50.948;6.590;2023-02-15T07:20:21;1.70;99.90
74171;DHT22;62526;50.948;6.590;2023-02-15T07:22:47;1.70;99.90
74171;DHT22;62526;50.948;6.590;2023-02-15T07:25:14;1.70;99.90
74171;DHT22;62526;50.948;6.590;2023-02-15T07:27:41;1.70;99.90
74171;DHT22;62526;50.948;6.590;2023-02-15T07:30:09;1.80;99.90
74171;DHT22;62526;50.948;6.590;2023-02-15T07:32:36;1.80;99.90
74171;DHT22;62526;50.948;6.590;2023-02-15T07:35:03;1.80;99.90
74171;DHT22;62526;50.948;6.590;2023-02-15T07:37:29;1.80;99.90
74171;DHT22;62526;50.948;6.590;2023-02-15T07:39:57;1.80;99.90
74171;DHT22;62526;50.948;6.590;2023-02-15T07:42:23;1.90;99.90
74171;DHT22;62526;50.948;6.590;2023-02-15T07:44:50;2.00;99.90
74171;DHT22;62526;50.948;6.590;2023-02-15T07:47:17;2.10;99.90
74171;DHT22;62526;50.948;6.590;2023-02-15T07:49:44;2.10;99.90
74171;DHT22;62526;50.948;6.590;2023-02-15T07:52:10;2.10;99.90
74171;DHT22;62526;50.948;6.590;2023-02-15T07:54:36;2.20;99.90
74171;DHT22;62526;50.948;6.590;2023-02-15T07:57:03;2.20;99.90
74171;DHT22;62526;50.948;6.590;2023-02-15T07:59:40;2.30;99.90
74171;DHT22;62526;50.948;6.590;2023-02-15T08:07:47;2.50;99.90
74171;DHT22;62526;50.948;6.590;2023-02-15T08:10:18;2.60;99.90
74171;DHT22;62526;50.948;6.590;2023-02-15T08:18:19;2.80;99.90
74171;DHT22;62526;50.948;6.590;2023-02-15T08:26:18;2.90;99.90
74171;DHT22;62526;50.948;6.590;2023-02-15T08:42:47;3.50;99.90
74171;DHT22;62526;50.948;6.590;2023-02-15T09:07:15;4.30;99.90
74171;DHT22;62526;50.948;6.590;2023-02-15T09:26:43;5.00;99.90
74171;DHT22;62526;50.948;6.590;2023-02-15T09:29:10;5.10;99.90
74171;DHT22;62526;50.948;6.590;2023-02-15T09:31:38;5.20;99.90
74171;DHT22;62526;50.948;6.590;2023-02-15T09:34:03;5.30;99.90
74171;DHT22;62526;50.948;6.590;2023-02-15T09:36:32;5.40;99.90
74171;DHT22;62526;50.948;6.590;2023-02-15T09:38:58;5.50;99.90
74171;DHT22;62526;50.948;6.590;2023-02-15T09:42:49;5.60;99.90
74171;DHT22;62526;50.948;6.590;2023-02-15T09:44:49;5.70;99.90
74171;DHT22;62526;50.948;6.590;2023-02-15T09:47:41;5.70;99.90
74171;DHT22;62526;50.948;6.590;2023-02-15T09:50:33;5.80;99.90
74171;DHT22;62526;50.948;6.590;2023-02-15T09:53:13;5.90;99.90
74171;DHT22;62526;50.948;6.590;2023-02-15T09:55:43;6.10;99.90
74171;DHT22;62526;50.948;6.590;2023-02-15T09:58:17;6.20;99.90
74171;DHT22;62526;50.948;6.590;2023-02-15T10:00:52;6.30;99.90
74171;DHT22;62526;50.948;6.590;2023-02-15T10:03:23;6.50;99.90
74171;DHT22;62526;50.948;6.590;2023-02-15T10:05:51;6.60;99.90
74171;DHT22;62526;50.948;6.590;2023-02-15T10:11:11;6.80;99.90
74171;DHT22;62526;50.948;6.590;2023-02-15T10:13:42;6.90;99.90
74171;DHT22;62526;50.948;6.590;2023-02-15T10:16:23;7.10;99.90
74171;DHT22;62526;50.948;6.590;2023-02-15T10:19:00;7.20;99.90
74171;DHT22;62526;50.948;6.590;2023-02-15T10:21:37;7.30;99.90
74171;DHT22;62526;50.948;6.590;2023-02-15T10:24:21;7.40;99.90
74171;DHT22;62526;50.948;6.590;2023-02-15T10:26:45;7.50;99.90
74171;DHT22;62526;50.948;6.590;2023-02-15T10:29:21;7.80;99.90
74171;DHT22;62526;50.948;6.590;2023-02-15T10:31:49;7.70;99.90
74171;DHT22;62526;50.948;6.590;2023-02-15T10:34:18;7.90;99.90
74171;DHT22;62526;50.948;6.590;2023-02-15T10:39:25;8.20;99.90
74171;DHT22;62526;50.948;6.590;2023-02-15T10:45:01;8.50;99.90
74171;DHT22;62526;50.948;6.590;2023-02-15T10:47:30;8.60;99.90
74171;DHT22;62526;50.948;6.590;2023-02-15T10:52:59;8.80;99.90
74171;DHT22;62526;50.948;6.590;2023-02-15T10:55:33;8.90;99.90
74171;DHT22;62526;50.948;6.590;2023-02-15T11:01:02;9.30;99.90
74171;DHT22;62526;50.948;6.590;2023-02-15T11:03:33;9.40;99.90
74171;DHT22;62526;50.948;6.590;2023-02-15T11:06:08;9.60;99.90
74171;DHT22;62526;50.948;6.590;2023-02-15T11:42:41;11.60;99.90
74171;DHT22;62526;50.948;6.590;2023-02-15T11:45:41;11.70;99.90
74171;DHT22;62526;50.948;6.590;2023-02-15T11:53:42;12.10;99.90
74171;DHT22;62526;50.948;6.590;2023-02-15T11:59:10;12.40;99.90
74171;DHT22;62526;50.948;6.590;2023-02-15T12:04:38;12.70;99.90
74171;DHT22;62526;50.948;6.590;2023-02-15T12:15:42;13.00;99.90
74171;DHT22;62526;50.948;6.590;2023-02-15T12:20:53;13.20;99.90
74171;DHT22;62526;50.948;6.590;2023-02-15T12:26:07;13.50;99.90
74171;DHT22;62526;50.948;6.590;2023-02-15T12:28:36;13.70;99.90
74171;DHT22;62526;50.948;6.590;2023-02-15T12:31:03;13.80;99.90
74171;DHT22;62526;50.948;6.590;2023-02-15T12:33:31;13.90;99.90
74171;DHT22;62526;50.948;6.590;2023-02-15T12:36:00;14.00;99.90
74171;DHT22;62526;50.948;6.590;2023-02-15T12:38:25;14.00;99.90
74171;DHT22;62526;50.948;6.590;2023-02-15T12:43:38;14.20;99.70
74171;DHT22;62526;50.948;6.590;2023-02-15T12:46:13;14.30;99.80
74171;DHT22;62526;50.948;6.590;2023-02-15T12:48:39;14.50;99.80
74171;DHT22;62526;50.948;6.590;2023-02-15T12:51:07;14.50;97.50
74171;DHT22;62526;50.948;6.590;2023-02-15T12:53:35;14.50;97.20
74171;DHT22;62526;50.948;6.590;2023-02-15T12:56:04;14.50;97.10
74171;DHT22;62526;50.948;6.590;2023-02-15T13:01:16;14.60;95.30
74171;DHT22;62526;50.948;6.590;2023-02-15T13:03:55;14.70;94.70
74171;DHT22;62526;50.948;6.590;2023-02-15T13:06:19;14.70;92.90
74171;DHT22;62526;50.948;6.590;2023-02-15T13:08:47;14.80;94.10
74171;DHT22;62526;50.948;6.590;2023-02-15T13:11:13;14.90;92.90
74171;DHT22;62526;50.948;6.590;2023-02-15T13:13:50;14.80;91.80
74171;DHT22;62526;50.948;6.590;2023-02-15T13:16:14;15.20;90.70
74171;DHT22;62526;50.948;6.590;2023-02-15T13:18:44;15.40;90.30
74171;DHT22;62526;50.948;6.590;2023-02-15T13:21:11;15.50;88.70
74171;DHT22;62526;50.948;6.590;2023-02-15T13:23:37;15.70;87.60
74171;DHT22;62526;50.948;6.590;2023-02-15T13:26:04;15.90;85.80
74171;DHT22;62526;50.948;6.590;2023-02-15T14:02:57;19.30;57.70
74171;DHT22;62526;50.948;6.590;2023-02-15T14:05:28;19.40;56.50
74171;DHT22;62526;50.948;6.590;2023-02-15T14:08:11;19.60;55.80
74171;DHT22;62526;50.948;6.590;2023-02-15T14:10:43;19.90;54.70
74171;DHT22;62526;50.948;6.590;2023-02-15T14:13:33;20.20;53.30
74171;DHT22;62526;50.948;6.590;2023-02-15T14:16:04;20.20;51.90
74171;DHT22;62526;50.948;6.590;2023-02-15T14:18:37;20.10;51.20
74171;DHT22;62526;50.948;6.590;2023-02-15T15:00:01;18.10;59.20
74171;DHT22;62526;50.948;6.590;2023-02-15T15:05:20;17.20;71.30
74171;DHT22;62526;50.948;6.590;2023-02-15T15:07:48;17.10;71.20
74171;DHT22;62526;50.948;6.590;2023-02-15T15:10:34;16.80;75.00
74171;DHT22;62526;50.948;6.590;2023-02-15T15:12:59;16.60;78.30
74171;DHT22;62526;50.948;6.590;2023-02-15T15:18:10;16.10;86.10
74171;DHT22;62526;50.948;6.590;2023-02-15T15:20:45;15.90;88.70
74171;DHT22;62526;50.948;6.590;2023-02-15T15:23:38;15.70;91.30
74171;DHT22;62526;50.948;6.590;2023-02-15T15:28:53;15.40;93.10
74171;DHT22;62526;50.948;6.590;2023-02-15T15:34:18;15.10;96.00
74171;DHT22;62526;50.948;6.590;2023-02-15T15:49:50;13.80;95.90
74171;DHT22;62526;50.948;6.590;2023-02-15T15:52:18;13.60;95.90
74171;DHT22;62526;50.948;6.590;2023-02-15T15:54:44;13.40;97.50
74171;DHT22;62526;50.948;6.590;2023-02-15T15:57:16;13.20;98.30
74171;DHT22;62526;50.948;6.590;2023-02-15T15:59:43;13.00;99.60
74171;DHT22;62526;50.948;6.590;2023-02-15T16:02:10;12.80;99.90
74171;DHT22;62526;50.948;6.590;2023-02-15T16:04:35;12.60;99.90
74171;DHT22;62526;50.948;6.590;2023-02-15T16:07:13;12.50;99.90
74171;DHT22;62526;50.948;6.590;2023-02-15T16:09:39;12.30;99.90
74171;DHT22;62526;50.948;6.590;2023-02-15T16:12:13;12.20;99.90
74171;DHT22;62526;50.948;6.590;2023-02-15T16:14:35;12.10;99.90
74171;DHT22;62526;50.948;6.590;2023-02-15T16:17:03;12.00;99.90
74171;DHT22;62526;50.948;6.590;2023-02-15T16:19:32;11.90;99.90
74171;DHT22;62526;50.948;6.590;2023-02-15T16:21:58;11.80;99.90
74171;DHT22;62526;50.948;6.590;2023-02-15T16:24:33;11.70;99.90
74171;DHT22;62526;50.948;6.590;2023-02-15T16:27:19;11.60;99.90
74171;DHT22;62526;50.948;6.590;2023-02-15T16:29:44;11.50;99.90
74171;DHT22;62526;50.948;6.590;2023-02-15T16:32:17;11.40;99.90
74171;DHT22;62526;50.948;6.590;2023-02-15T16:34:50;11.30;99.90
74171;DHT22;62526;50.948;6.590;2023-02-15T16:37:18;11.20;99.90
74171;DHT22;62526;50.948;6.590;2023-02-15T16:39:45;11.10;99.90
74171;DHT22;62526;50.948;6.590;2023-02-15T16:42:12;11.00;99.90
74171;DHT22;62526;50.948;6.590;2023-02-15T16:44:39;10.90;99.90
74171;DHT22;62526;50.948;6.590;2023-02-15T16:47:09;10.80;99.90
74171;DHT22;62526;50.948;6.590;2023-02-15T16:49:34;10.80;99.90
74171;DHT22;62526;50.948;6.590;2023-02-15T16:52:03;10.70;99.90
74171;DHT22;62526;50.948;6.590;2023-02-15T16:54:29;10.70;99.90
74171;DHT22;62526;50.948;6.590;2023-02-15T16:56:56;10.60;99.90
74171;DHT22;62526;50.948;6.590;2023-02-15T16:59:31;10.50;99.90
74171;DHT22;62526;50.948;6.590;2023-02-15T17:01:56;10.40;99.90
74171;DHT22;62526;50.948;6.590;2023-02-15T17:04:27;10.40;99.90
74171;DHT22;62526;50.948;6.590;2023-02-15T17:07:17;10.40;99.90
74171;DHT22;62526;50.948;6.590;2023-02-15T17:09:53;10.30;99.90
74171;DHT22;62526;50.948;6.590;2023-02-15T17:15:23;10.20;99.90
74171;DHT22;62526;50.948;6.590;2023-02-15T17:17:34;10.10;99.90
74171;DHT22;62526;50.948;6.590;2023-02-15T17:20:01;10.10;99.90
74171;DHT22;62526;50.948;6.590;2023-02-15T17:22:27;10.00;99.90
74171;DHT22;62526;50.948;6.590;2023-02-15T17:24:59;10.00;99.90
74171;DHT22;62526;50.948;6.590;2023-02-15T17:27:26;9.90;99.90
74171;DHT22;62526;50.948;6.590;2023-02-15T17:29:57;9.90;99.90
74171;DHT22;62526;50.948;6.590;2023-02-15T17:32:25;9.80;99.90
74171;DHT22;62526;50.948;6.590;2023-02-15T17:35:06;9.80;99.90
74171;DHT22;62526;50.948;6.590;2023-02-15T17:37:50;9.70;99.90
74171;DHT22;62526;50.948;6.590;2023-02-15T17:40:24;9.70;99.90
74171;DHT22;62526;50.948;6.590;2023-02-15T17:42:52;9.60;99.90
74171;DHT22;62526;50.948;6.590;2023-02-15T17:45:21;9.50;99.90
74171;DHT22;62526;50.948;6.590;2023-02-15T17:47:50;9.50;99.90
74171;DHT22;62526;50.948;6.590;2023-02-15T17:50:29;9.40;99.90
74171;DHT22;62526;50.948;6.590;2023-02-15T17:53:08;9.40;99.90
74171;DHT22;62526;50.948;6.590;2023-02-15T17:55:35;9.30;99.90
74171;DHT22;62526;50.948;6.590;2023-02-15T17:58:07;9.20;99.90
74171;DHT22;62526;50.948;6.590;2023-02-15T18:00:33;9.20;99.90
74171;DHT22;62526;50.948;6.590;2023-02-15T18:03:07;9.10;99.90
74171;DHT22;62526;50.948;6.590;2023-02-15T18:05:38;9.10;99.90
74171;DHT22;62526;50.948;6.590;2023-02-15T18:08:14;9.10;99.90
74171;DHT22;62526;50.948;6.590;2023-02-15T18:10:48;9.10;99.90
74171;DHT22;62526;50.948;6.590;2023-02-15T18:13:20;9.00;99.90
74171;DHT22;62526;50.948;6.590;2023-02-15T18:15:47;8.90;99.90
74171;DHT22;62526;50.948;6.590;2023-02-15T18:18:15;8.90;99.90
74171;DHT22;62526;50.948;6.590;2023-02-15T18:20:45;8.80;99.90
74171;DHT22;62526;50.948;6.590;2023-02-15T18:23:13;8.70;99.90
74171;DHT22;62526;50.948;6.590;2023-02-15T18:25:39;8.70;99.90
74171;DHT22;62526;50.948;6.590;2023-02-15T18:28:07;8.70;99.90
74171;DHT22;62526;50.948;6.590;2023-02-15T18:30:35;8.60;99.90
74171;DHT22;62526;50.948;6.590;2023-02-15T18:33:02;8.60;99.90
74171;DHT22;62526;50.948;6.590;2023-02-15T18:35:29;8.50;99.90
74171;DHT22;62526;50.948;6.590;2023-02-15T18:37:55;8.40;99.90
74171;DHT22;62526;50.948;6.590;2023-02-15T18:40:24;8.40;99.90
74171;DHT22;62526;50.948;6.590;2023-02-15T18:42:48;8.30;99.90
74171;DHT22;62526;50.948;6.590;2023-02-15T18:45:16;8.30;99.90
74171;DHT22;62526;50.948;6.590;2023-02-15T18:47:43;8.30;99.90
74171;DHT22;62526;50.948;6.590;2023-02-15T18:50:10;8.30;99.90
74171;DHT22;62526;50.948;6.590;2023-02-15T18:52:36;8.20;99.90
74171;DHT22;62526;50.948;6.590;2023-02-15T18:55:04;8.20;99.90
74171;DHT22;62526;50.948;6.590;2023-02-15T18:57:30;8.20;99.90
74171;DHT22;62526;50.948;6.590;2023-02-15T18:59:56;8.10;99.90
74171;DHT22;62526;50.948;6.590;2023-02-15T19:02:24;8.10;99.90
74171;DHT22;62526;50.948;6.590;2023-02-15T19:04:50;8.00;99.90
74171;DHT22;62526;50.948;6.590;2023-02-15T19:07:21;8.00;99.90
74171;DHT22;62526;50.948;6.590;2023-02-15T19:09:49;8.00;99.90
74171;DHT22;62526;50.948;6.590;2023-02-15T19:12:13;8.00;99.90
74171;DHT22;62526;50.948;6.590;2023-02-15T19:14:41;7.90;99.90
74171;DHT22;62526;50.948;6.590;2023-02-15T19:17:15;7.80;99.90
74171;DHT22;62526;50.948;6.590;2023-02-15T19:19:42;7.70;99.90
74171;DHT22;62526;50.948;6.590;2023-02-15T19:22:13;7.70;99.90
74171;DHT22;62526;50.948;6.590;2023-02-15T19:24:39;7.70;99.90
74171;DHT22;62526;50.948;6.590;2023-02-15T19:27:06;7.60;99.90
74171;DHT22;62526;50.948;6.590;2023-02-15T19:29:32;7.60;99.90
74171;DHT22;62526;50.948;6.590;2023-02-15T19:31:59;7.70;99.90
74171;DHT22;62526;50.948;6.590;2023-02-15T19:34:26;7.70;99.90
74171;DHT22;62526;50.948;6.590;2023-02-15T19:36:53;7.70;99.90
74171;DHT22;62526;50.948;6.590;2023-02-15T19:39:26;7.70;99.90
74171;DHT22;62526;50.948;6.590;2023-02-15T19:41:51;7.70;99.90
74171;DHT22;62526;50.948;6.590;2023-02-15T19:44:18;7.70;99.90
74171;DHT22;62526;50.948;6.590;2023-02-15T19:46:45;7.70;99.90
74171;DHT22;62526;50.948;6.590;2023-02-15T19:49:12;7.70;99.90
74171;DHT22;62526;50.948;6.590;2023-02-15T19:51:38;7.60;99.90
74171;DHT22;62526;50.948;6.590;2023-02-15T19:54:25;7.60;99.90
74171;DHT22;62526;50.948;6.590;2023-02-15T19:56:51;7.50;99.90
74171;DHT22;62526;50.948;6.590;2023-02-15T19:59:22;7.50;99.90
74171;DHT22;62526;50.948;6.590;2023-02-15T20:01:48;7.20;99.90
74171;DHT22;62526;50.948;6.590;2023-02-15T20:04:15;6.70;99.90
74171;DHT22;62526;50.948;6.590;2023-02-15T20:06:42;7.10;99.90
74171;DHT22;62526;50.948;6.590;2023-02-15T20:09:12;6.90;99.90
74171;DHT22;62526;50.948;6.590;2023-02-15T20:11:34;6.80;99.90
74171;DHT22;62526;50.948;6.590;2023-02-15T20:14:01;6.70;99.90
74171;DHT22;62526;50.948;6.590;2023-02-15T20:16:28;6.60;99.90
74171;DHT22;62526;50.948;6.590;2023-02-15T20:18:54;6.60;99.90
74171;DHT22;62526;50.948;6.590;2023-02-15T20:21:21;6.50;99.90
74171;DHT22;62526;50.948;6.590;2023-02-15T20:23:47;6.50;99.90
74171;DHT22;62526;50.948;6.590;2023-02-15T20:26:15;6.60;99.90